Time;durP1;ratioP1;P1;durP2;ratioP2;P2;SDS_P1;SDS_P2;PMS_P1;PMS_P2;Temp;Humidity;BMP_temperature;BMP_pressure;BME280_temperature;BME280_humidity;BME280_pressure;Samples;Min_cycle;Max_cycle;Signal;HPM_P1;HPM_P2
2022/10/26 00:01:26;;;;;;;11.43;4.93;;;11.50;1.00;;;;;;5039685;28;20478;-59
2022/10/26 00:03:54;;;;;;;7.60;5.13;;;11.40;1.00;;;;;;5044932;28;21261;-59
2022/10/26 00:06:23;;;;;;;7.90;4.80;;;11.50;1.00;;;;;;5047600;28;20449;-60
2022/10/26 00:08:50;;;;;;;9.47;5.30;;;11.40;1.00;;;;;;5038701;28;20473;-60
2022/10/26 00:11:16;;;;;;;5.40;4.53;;;11.40;1.00;;;;;;5046039;28;20424;-60
2022/10/26 00:13:42;;;;;;;5.60;5.10;;;11.40;1.00;;;;;;5049311;28;20427;-60
2022/10/26 00:16:11;;;;;;;8.17;5.27;;;11.40;1.00;;;;;;5044303;28;20439;-60
2022/10/26 00:18:36;;;;;;;6.83;4.97;;;11.40;1.00;;;;;;5045734;28;20456;-60
2022/10/26 00:21:07;;;;;;;7.70;4.83;;;11.40;1.00;;;;;;5048173;28;20514;-60
2022/10/26 00:23:32;;;;;;;6.03;5.03;;;11.40;1.00;;;;;;5041764;28;20196;-60
2022/10/26 00:25:58;;;;;;;7.40;4.40;;;11.40;1.00;;;;;;5040467;28;20443;-60
2022/10/26 00:28:24;;;;;;;5.87;4.83;;;11.40;1.00;;;;;;5046043;28;20246;-60
2022/10/26 00:30:50;;;;;;;5.57;4.87;;;11.40;1.00;;;;;;5045742;28;20802;-59
2022/10/26 00:33:16;;;;;;;6.00;5.03;;;11.30;1.00;;;;;;5041061;28;20443;-60
2022/10/26 00:35:41;;;;;;;6.23;4.63;;;11.30;1.00;;;;;;5039638;28;20192;-60
2022/10/26 00:38:07;;;;;;;10.20;5.40;;;11.30;1.00;;;;;;5042738;28;20464;-60
2022/10/26 00:40:32;;;;;;;5.37;4.30;;;11.30;1.00;;;;;;5044359;28;20188;-58
2022/10/26 00:43:00;;;;;;;6.43;4.60;;;11.20;1.00;;;;;;5041643;28;20189;-60
2022/10/26 00:45:28;;;;;;;6.60;4.77;;;11.20;1.00;;;;;;5045964;28;20224;-60
2022/10/26 00:48:05;;;;;;;9.37;5.20;;;11.20;1.00;;;;;;5043094;28;20493;-59
2022/10/26 00:50:42;;;;;;;10.63;4.90;;;11.10;1.00;;;;;;5054438;28;20926;-59
2022/10/26 00:53:10;;;;;;;8.67;4.90;;;11.10;1.00;;;;;;5051901;28;20456;-60
2022/10/26 00:55:40;;;;;;;6.10;4.60;;;11.10;1.00;;;;;;5046514;28;20884;-60
2022/10/26 00:58:08;;;;;;;4.13;3.73;;;11.10;1.00;;;;;;5042505;28;20443;-60
2022/10/26 01:00:34;;;;;;;5.27;4.47;;;11.10;1.00;;;;;;5042598;28;20435;-59
2022/10/26 01:03:04;;;;;;;4.60;3.97;;;13.90;1.00;;;;;;5039099;28;20917;-60
2022/10/26 01:05:30;;;;;;;5.30;4.40;;;11.00;1.00;;;;;;5045900;28;20203;-59
2022/10/26 01:07:57;;;;;;;4.43;4.03;;;11.00;1.00;;;;;;5045085;28;20476;-60
2022/10/26 01:10:24;;;;;;;6.20;4.17;;;11.00;1.00;;;;;;5042548;28;20449;-59
2022/10/26 01:12:51;;;;;;;4.87;4.30;;;11.00;1.00;;;;;;5041088;28;20424;-60
2022/10/26 01:15:17;;;;;;;6.93;5.23;;;11.00;1.00;;;;;;5041651;28;21307;-60
2022/10/26 01:17:57;;;;;;;9.77;6.00;;;11.00;1.00;;;;;;5044873;28;20578;-60
2022/10/26 01:20:51;;;;;;;6.53;4.43;;;11.00;1.00;;;;;;5046755;28;20444;-59
2022/10/26 01:23:43;;;;;;;7.97;5.23;;;10.90;1.00;;;;;;5041282;28;20426;-60
2022/10/26 01:26:27;;;;;;;4.70;4.30;;;10.90;1.00;;;;;;5046104;28;21040;-60
2022/10/26 01:29:05;;;;;;;7.90;4.90;;;10.90;1.00;;;;;;5039309;28;21001;-58
2022/10/26 01:31:41;;;;;;;6.73;5.07;;;10.90;1.00;;;;;;5043680;28;20437;-58
2022/10/26 01:34:16;;;;;;;23.17;5.87;;;10.90;1.00;;;;;;5040156;28;20804;-59
2022/10/26 01:37:00;;;;;;;8.67;4.40;;;10.90;1.00;;;;;;5047975;28;20449;-59
2022/10/26 01:39:34;;;;;;;5.67;4.27;;;10.90;1.00;;;;;;5041854;28;20516;-59
2022/10/26 01:42:04;;;;;;;4.90;4.47;;;13.10;1.00;;;;;;5046354;28;20498;-58
2022/10/26 01:44:44;;;;;;;7.17;5.03;;;10.80;1.00;;;;;;5045115;28;20555;-59
2022/10/26 01:47:13;;;;;;;8.57;4.70;;;10.80;1.00;;;;;;5042806;28;20461;-59
2022/10/26 01:50:00;;;;;;;6.97;4.73;;;10.80;1.00;;;;;;5038343;28;20455;-59
2022/10/26 01:52:27;;;;;;;5.93;3.90;;;10.80;1.00;;;;;;5048106;28;20459;-61
2022/10/26 01:55:04;;;;;;;6.93;4.87;;;10.80;1.00;;;;;;5045892;28;20828;-59
2022/10/26 01:57:34;;;;;;;6.00;4.40;;;10.80;1.00;;;;;;5041119;28;20883;-59
2022/10/26 02:00:05;;;;;;;6.80;4.50;;;10.80;1.00;;;;;;5045701;28;20970;-59
2022/10/26 02:02:57;;;;;;;7.90;4.90;;;10.80;1.00;;;;;;5044540;28;20444;-60
2022/10/26 02:05:32;;;;;;;6.17;4.53;;;10.80;1.00;;;;;;5040807;28;20540;-59
2022/10/26 02:08:22;;;;;;;7.03;4.63;;;10.70;1.00;;;;;;5042473;28;20472;-59
2022/10/26 02:10:59;;;;;;;5.70;5.10;;;10.80;1.00;;;;;;5045715;28;20435;-60
2022/10/26 02:13:49;;;;;;;10.93;5.17;;;10.70;1.00;;;;;;5039762;28;20448;-60
2022/10/26 02:16:17;;;;;;;5.63;4.90;;;10.70;1.00;;;;;;5043268;28;20469;-60
2022/10/26 02:18:55;;;;;;;7.50;4.97;;;10.80;1.00;;;;;;5044266;28;20777;-59
2022/10/26 02:21:28;;;;;;;10.43;5.53;;;10.70;1.00;;;;;;5043016;28;20449;-61
2022/10/26 02:23:57;;;;;;;7.17;5.50;;;10.70;1.00;;;;;;5046165;28;20475;-60
2022/10/26 02:26:27;;;;;;;6.40;5.23;;;10.70;1.00;;;;;;5047237;28;20437;-59
2022/10/26 02:28:57;;;;;;;7.43;5.60;;;10.60;1.00;;;;;;5044418;28;20496;-59
2022/10/26 02:31:24;;;;;;;5.97;5.37;;;10.60;1.00;;;;;;5043682;28;20450;-60
2022/10/26 02:33:53;;;;;;;6.63;4.90;;;10.70;1.00;;;;;;5042992;28;20951;-59
2022/10/26 02:36:24;;;;;;;8.67;4.87;;;10.60;1.00;;;;;;5047092;28;20460;-60
2022/10/26 02:38:51;;;;;;;7.00;4.83;;;10.60;1.00;;;;;;5046960;28;20423;-59
2022/10/26 02:41:20;;;;;;;7.13;4.80;;;10.50;1.00;;;;;;5050042;28;20442;-59
2022/10/26 02:44:26;;;;;;;8.80;4.80;;;10.50;1.00;;;;;;5049136;28;20503;-59
2022/10/26 02:46:53;;;;;;;6.60;5.50;;;10.60;1.00;;;;;;5046703;28;20457;-59
2022/10/26 02:49:19;;;;;;;5.03;4.50;;;10.60;1.00;;;;;;5044872;28;20902;-59
2022/10/26 02:51:48;;;;;;;6.40;4.57;;;10.50;1.00;;;;;;5052164;28;20476;-60
2022/10/26 02:54:40;;;;;;;7.10;4.60;;;10.60;1.00;;;;;;5046637;28;20477;-58
2022/10/26 02:57:21;;;;;;;11.47;5.03;;;10.60;1.00;;;;;;5047611;28;20449;-59
2022/10/26 02:59:48;;;;;;;5.30;4.50;;;10.60;1.00;;;;;;5046971;28;21005;-59
2022/10/26 03:02:16;;;;;;;5.77;4.57;;;10.50;1.00;;;;;;5056101;28;20913;-59
2022/10/26 03:04:42;;;;;;;5.70;5.20;;;10.50;1.00;;;;;;5047627;28;20443;-59
2022/10/26 03:07:07;;;;;;;7.20;4.87;;;10.50;1.00;;;;;;5050825;28;20945;-59
2022/10/26 03:09:33;;;;;;;6.60;4.70;;;10.60;1.00;;;;;;5048647;28;20337;-59
2022/10/26 03:11:58;;;;;;;9.50;5.40;;;10.60;1.00;;;;;;5050265;28;20206;-59
2022/10/26 03:14:24;;;;;;;5.90;5.30;;;10.60;1.00;;;;;;5045128;28;20197;-59
2022/10/26 03:16:50;;;;;;;7.00;5.00;;;10.50;1.00;;;;;;5044028;28;20188;-60
2022/10/26 03:19:15;;;;;;;7.30;5.40;;;10.50;1.00;;;;;;5043666;28;20192;-60
2022/10/26 03:21:41;;;;;;;6.77;6.07;;;10.50;1.00;;;;;;5046888;28;20275;-59
2022/10/26 03:24:07;;;;;;;7.93;5.10;;;10.50;1.00;;;;;;5046166;28;20218;-60
2022/10/26 03:26:33;;;;;;;7.60;4.80;;;10.50;1.00;;;;;;5042472;28;20833;-58
2022/10/26 03:28:58;;;;;;;7.33;5.40;;;10.40;1.00;;;;;;5045243;28;20465;-59
2022/10/26 03:31:24;;;;;;;6.80;5.90;;;10.80;1.00;;;;;;5052330;28;20708;-59
2022/10/26 03:33:49;;;;;;;8.17;5.67;;;10.40;1.00;;;;;;5042943;28;20280;-60
2022/10/26 03:36:15;;;;;;;8.37;5.37;;;10.40;1.00;;;;;;5044895;28;20278;-60
2022/10/26 03:38:40;;;;;;;8.93;5.87;;;10.40;1.00;;;;;;5048783;28;20281;-59
2022/10/26 03:41:06;;;;;;;6.93;5.70;;;10.40;1.00;;;;;;5060099;28;20219;-60
2022/10/26 03:43:32;;;;;;;8.20;5.47;;;10.80;1.00;;;;;;5053670;28;20259;-59
2022/10/26 03:45:57;;;;;;;10.00;6.03;;;10.30;1.00;;;;;;5055814;28;20186;-60
2022/10/26 03:48:23;;;;;;;9.50;6.30;;;10.40;1.00;;;;;;5052760;28;20613;-60
2022/10/26 03:50:48;;;;;;;8.87;5.50;;;10.40;1.00;;;;;;5054808;28;20653;-59
2022/10/26 03:53:14;;;;;;;7.23;6.53;;;10.40;1.00;;;;;;5048657;28;20267;-60
2022/10/26 03:55:43;;;;;;;7.73;6.10;;;10.30;1.00;;;;;;5054400;28;20176;-59
2022/10/26 03:58:09;;;;;;;8.40;5.97;;;10.30;1.00;;;;;;5047136;28;20549;-62
2022/10/26 04:00:34;;;;;;;9.57;5.70;;;10.30;1.00;;;;;;5045780;28;20455;-60
2022/10/26 04:03:00;;;;;;;7.10;5.67;;;10.20;1.00;;;;;;5048838;28;20194;-59
2022/10/26 04:05:27;;;;;;;6.90;5.87;;;10.20;1.00;;;;;;5048920;28;20278;-60
2022/10/26 04:07:58;;;;;;;10.37;5.67;;;10.30;1.00;;;;;;5044192;28;20197;-60
2022/10/26 04:10:25;;;;;;;9.27;6.10;;;10.30;1.00;;;;;;5047680;28;20441;-60
2022/10/26 04:12:51;;;;;;;7.83;5.87;;;10.30;1.00;;;;;;5046900;28;20800;-59
2022/10/26 04:15:17;;;;;;;7.47;6.40;;;10.20;1.00;;;;;;5046728;28;20440;-59
2022/10/26 04:17:43;;;;;;;9.30;5.90;;;10.20;1.00;;;;;;5047092;28;20451;-60
2022/10/26 04:20:09;;;;;;;7.63;6.00;;;10.20;1.00;;;;;;5046017;28;20462;-59
2022/10/26 04:22:35;;;;;;;8.53;6.30;;;10.20;1.00;;;;;;5062340;28;20205;-59
2022/10/26 04:25:01;;;;;;;6.77;6.07;;;10.20;1.00;;;;;;5046609;28;20474;-59
2022/10/26 04:27:27;;;;;;;9.60;6.40;;;10.10;1.00;;;;;;5046678;28;20427;-60
2022/10/26 04:29:53;;;;;;;6.87;6.17;;;10.20;1.00;;;;;;5045702;28;20531;-59
2022/10/26 04:32:18;;;;;;;7.17;6.47;;;10.10;1.00;;;;;;5049063;28;20618;-59
2022/10/26 04:34:44;;;;;;;7.40;6.70;;;10.10;1.00;;;;;;5048712;28;20191;-59
2022/10/26 04:37:10;;;;;;;7.50;6.27;;;10.10;1.00;;;;;;5048750;28;20191;-59
2022/10/26 04:39:35;;;;;;;9.37;7.90;;;10.00;1.00;;;;;;5047046;28;20825;-58
2022/10/26 04:42:01;;;;;;;6.87;6.17;;;10.00;1.00;;;;;;5044869;28;20248;-60
2022/10/26 04:44:26;;;;;;;8.83;6.97;;;10.00;1.00;;;;;;5044425;28;20715;-60
2022/10/26 04:46:52;;;;;;;9.60;6.73;;;10.00;1.00;;;;;;5043708;28;20192;-60
2022/10/26 04:49:17;;;;;;;6.87;6.17;;;10.00;1.00;;;;;;5045276;28;20215;-57
2022/10/26 04:51:43;;;;;;;15.20;7.60;;;10.00;1.00;;;;;;5050318;28;20195;-59
2022/10/26 04:54:08;;;;;;;9.53;7.57;;;10.00;1.00;;;;;;5048850;28;20251;-59
2022/10/26 04:56:34;;;;;;;9.73;6.70;;;10.00;1.00;;;;;;5048365;28;20206;-59
2022/10/26 04:59:00;;;;;;;8.10;5.97;;;10.00;1.00;;;;;;5046436;28;20573;-60
2022/10/26 05:01:25;;;;;;;8.07;6.53;;;9.90;1.00;;;;;;5046880;28;20499;-58
2022/10/26 05:03:51;;;;;;;8.83;6.03;;;9.90;1.00;;;;;;5048393;28;20195;-59
2022/10/26 05:06:20;;;;;;;7.70;6.90;;;9.90;1.00;;;;;;5047829;28;20196;-60
2022/10/26 05:08:46;;;;;;;8.60;6.73;;;9.90;1.00;;;;;;5046506;28;20845;-59
2022/10/26 05:11:12;;;;;;;7.53;6.70;;;9.90;1.00;;;;;;5047652;28;20485;-60
2022/10/26 05:13:38;;;;;;;8.63;6.87;;;9.90;1.00;;;;;;5044286;28;20492;-60
2022/10/26 05:16:04;;;;;;;9.27;7.03;;;9.90;1.00;;;;;;5046838;28;20676;-59
2022/10/26 05:18:29;;;;;;;7.37;6.60;;;9.90;1.00;;;;;;5044108;28;20199;-60
2022/10/26 05:20:55;;;;;;;7.83;6.80;;;10.00;1.00;;;;;;5045731;28;20453;-59
2022/10/26 05:23:21;;;;;;;7.80;6.80;;;9.90;1.00;;;;;;5047188;28;20225;-59
2022/10/26 05:25:47;;;;;;;8.87;7.03;;;9.90;1.00;;;;;;5048106;28;20700;-59
2022/10/26 05:28:14;;;;;;;9.13;6.83;;;9.90;1.00;;;;;;5046652;28;20478;-59
2022/10/26 05:30:41;;;;;;;9.00;6.50;;;9.80;1.00;;;;;;5048050;28;20185;-59
2022/10/26 05:33:09;;;;;;;10.30;8.03;;;9.80;1.00;;;;;;5056982;28;20808;-60
2022/10/26 05:35:35;;;;;;;9.13;6.63;;;9.80;1.00;;;;;;5046474;28;20905;-59
2022/10/26 05:38:08;;;;;;;7.83;7.07;;;9.80;1.00;;;;;;5047338;28;20481;-59
2022/10/26 05:40:34;;;;;;;8.67;7.20;;;9.70;1.00;;;;;;5046321;28;20445;-59
2022/10/26 05:43:00;;;;;;;10.00;6.60;;;9.80;1.00;;;;;;5045813;28;20446;-59
2022/10/26 05:45:26;;;;;;;10.97;7.10;;;9.90;1.00;;;;;;5064250;28;20224;-60
2022/10/26 05:47:52;;;;;;;10.60;7.77;;;9.90;1.00;;;;;;5046185;28;20458;-60
2022/10/26 05:50:17;;;;;;;9.97;7.33;;;9.80;1.00;;;;;;5052120;28;20802;-59
2022/10/26 05:52:45;;;;;;;11.00;7.37;;;9.80;1.00;;;;;;5052175;28;20181;-61
2022/10/26 05:55:13;;;;;;;9.63;7.33;;;9.80;1.00;;;;;;5050584;28;20240;-58
2022/10/26 05:57:39;;;;;;;8.30;5.90;;;9.80;1.00;;;;;;5051238;28;20442;-60
2022/10/26 06:00:15;;;;;;;11.57;7.10;;;9.80;1.00;;;;;;5048339;28;20461;-60
2022/10/26 06:03:10;;;;;;;9.10;7.00;;;9.80;1.00;;;;;;5051085;28;20456;-60
2022/10/26 06:05:57;;;;;;;7.87;6.70;;;9.80;1.00;;;;;;5042116;28;20942;-58
2022/10/26 06:08:24;;;;;;;8.73;7.60;;;9.90;1.00;;;;;;5051962;28;21009;-59
2022/10/26 06:10:52;;;;;;;8.13;6.43;;;9.90;1.00;;;;;;5050944;28;20476;-60
2022/10/26 06:13:18;;;;;;;9.53;7.03;;;9.90;1.00;;;;;;5059981;28;20444;-60
2022/10/26 06:16:11;;;;;;;10.20;7.83;;;9.90;1.00;;;;;;5071605;28;20434;-59
2022/10/26 06:18:56;;;;;;;8.50;7.70;;;9.90;1.00;;;;;;5049213;28;20480;-60
2022/10/26 06:21:43;;;;;;;13.50;8.33;;;9.90;1.00;;;;;;5052524;28;20416;-60
2022/10/26 06:24:23;;;;;;;8.93;6.70;;;10.00;1.00;;;;;;5049730;28;20449;-60
2022/10/26 06:27:01;;;;;;;9.30;7.77;;;10.10;1.00;;;;;;5048637;28;20465;-59
2022/10/26 06:29:48;;;;;;;10.90;8.53;;;10.20;1.00;;;;;;5050635;28;20487;-60
2022/10/26 06:32:14;;;;;;;10.17;7.57;;;10.20;1.00;;;;;;5050166;28;20449;-58
2022/10/26 06:34:45;;;;;;;9.77;8.20;;;10.30;1.00;;;;;;5049439;28;21116;-60
2022/10/26 06:37:11;;;;;;;9.57;8.07;;;10.20;1.00;;;;;;5051054;28;20446;-59
2022/10/26 06:39:42;;;;;;;11.17;7.90;;;10.30;1.00;;;;;;5061926;28;20457;-60
2022/10/26 06:42:10;;;;;;;16.37;8.37;;;10.40;1.00;;;;;;5072332;28;20441;-60
2022/10/26 06:44:36;;;;;;;11.83;7.83;;;10.40;1.00;;;;;;5050672;28;20535;-59
2022/10/26 06:47:20;;;;;;;8.00;7.23;;;10.50;1.00;;;;;;5049304;28;20540;-59
2022/10/26 06:49:54;;;;;;;10.77;8.10;;;10.50;1.00;;;;;;5051147;28;20512;-60
2022/10/26 06:52:32;;;;;;;18.63;8.60;;;10.60;1.00;;;;;;5049659;28;20447;-60
2022/10/26 06:54:59;;;;;;;7.97;7.17;;;10.70;1.00;;;;;;5050736;28;20971;-60
2022/10/26 06:57:32;;;;;;;10.23;7.60;;;10.80;1.00;;;;;;5049428;28;20457;-59
2022/10/26 07:00:01;;;;;;;12.80;9.63;;;10.80;1.00;;;;;;5049061;28;20532;-59
2022/10/26 07:02:26;;;;;;;9.10;8.10;;;10.80;1.00;;;;;;5047626;28;20508;-59
2022/10/26 07:04:52;;;;;;;9.60;8.20;;;10.90;1.00;;;;;;5050977;28;20513;-59
2022/10/26 07:07:26;;;;;;;11.97;8.57;;;11.00;1.00;;;;;;5049322;28;20188;-59
2022/10/26 07:09:52;;;;;;;11.13;8.23;;;11.10;1.00;;;;;;5049232;28;20215;-60
2022/10/26 07:12:17;;;;;;;10.83;7.97;;;11.20;1.00;;;;;;5048973;28;20450;-61
2022/10/26 07:14:43;;;;;;;9.43;7.50;;;11.20;1.00;;;;;;5051279;28;20810;-61
2022/10/26 07:17:09;;;;;;;9.70;8.70;;;11.30;1.00;;;;;;5051994;28;20225;-59
2022/10/26 07:19:35;;;;;;;9.60;8.10;;;11.30;1.00;;;;;;5049925;28;20215;-59
2022/10/26 07:22:00;;;;;;;8.97;7.43;;;11.40;1.00;;;;;;5049660;28;20665;-59
2022/10/26 07:24:27;;;;;;;11.17;8.10;;;11.60;1.00;;;;;;5047837;28;20196;-60
2022/10/26 07:26:54;;;;;;;10.97;7.47;;;11.60;1.00;;;;;;5050668;28;20314;-60
2022/10/26 07:29:21;;;;;;;10.57;7.90;;;11.60;1.00;;;;;;5056917;28;20505;-60
2022/10/26 07:31:47;;;;;;;10.67;8.40;;;11.70;1.00;;;;;;5049951;28;20441;-59
2022/10/26 07:34:12;;;;;;;10.40;8.20;;;11.80;1.00;;;;;;5050716;28;20442;-59
2022/10/26 07:36:38;;;;;;;8.20;7.40;;;11.80;1.00;;;;;;5050105;28;20203;-59
2022/10/26 07:39:05;;;;;;;11.40;7.80;;;12.00;1.00;;;;;;5057274;28;20300;-59
2022/10/26 07:41:32;;;;;;;13.10;8.60;;;12.10;1.00;;;;;;5048613;28;20813;-58
2022/10/26 07:43:59;;;;;;;10.90;7.97;;;12.20;1.00;;;;;;5048382;28;20483;-58
2022/10/26 07:46:25;;;;;;;8.77;7.87;;;12.20;1.00;;;;;;5050951;28;20848;-60
2022/10/26 07:48:50;;;;;;;9.27;7.77;;;12.40;1.00;;;;;;5044914;28;20473;-58
2022/10/26 07:51:16;;;;;;;13.60;7.47;;;12.40;1.00;;;;;;5049553;28;20444;-58
2022/10/26 07:53:42;;;;;;;12.53;7.20;;;12.40;1.00;;;;;;5059148;28;20238;-60
2022/10/26 07:56:09;;;;;;;9.93;7.70;;;12.40;1.00;;;;;;5050031;28;20188;-61
2022/10/26 07:58:35;;;;;;;10.47;8.10;;;12.30;1.00;;;;;;5046741;28;20218;-60
2022/10/26 08:01:09;;;;;;;14.47;8.30;;;12.30;1.00;;;;;;5049257;28;20530;-60
2022/10/26 08:03:34;;;;;;;13.90;7.83;;;12.30;1.00;;;;;;5049592;28;20587;-59
2022/10/26 08:06:00;;;;;;;9.17;8.27;;;12.40;1.00;;;;;;5049516;28;20459;-60
2022/10/26 08:08:26;;;;;;;9.50;8.43;;;12.60;1.00;;;;;;5046130;28;20682;-59
2022/10/26 08:10:52;;;;;;;10.47;8.07;;;12.70;1.00;;;;;;5046829;28;20429;-60
2022/10/26 08:13:17;;;;;;;17.83;8.13;;;12.80;1.00;;;;;;5043776;28;20183;-59
2022/10/26 08:15:44;;;;;;;12.00;7.80;;;12.80;1.00;;;;;;5050822;28;20226;-60
2022/10/26 08:18:09;;;;;;;10.90;8.20;;;12.80;1.00;;;;;;5046164;28;20195;-59
2022/10/26 08:20:35;;;;;;;10.10;8.27;;;12.90;1.00;;;;;;5046990;28;20430;-59
2022/10/26 08:23:04;;;;;;;9.13;7.97;;;13.00;1.00;;;;;;5050415;28;20191;-60
2022/10/26 08:25:31;;;;;;;7.60;6.80;;;13.20;1.00;;;;;;5047801;28;20476;-59
2022/10/26 08:28:00;;;;;;;9.57;8.57;;;13.50;1.00;;;;;;5049895;28;20431;-59
2022/10/26 08:30:26;;;;;;;10.40;7.93;;;13.50;1.00;;;;;;5048863;28;20454;-60
2022/10/26 08:33:03;;;;;;;8.13;7.33;;;13.50;1.00;;;;;;5050178;28;20444;-60
2022/10/26 08:35:29;;;;;;;8.57;7.17;;;13.90;1.00;;;;;;5041980;28;20186;-59
2022/10/26 08:37:55;;;;;;;9.20;7.70;;;14.00;1.00;;;;;;5046319;28;20473;-59
2022/10/26 08:40:27;;;;;;;8.23;7.37;;;14.40;1.00;;;;;;5049654;28;20450;-59
2022/10/26 08:42:59;;;;;;;8.93;7.03;;;14.40;1.00;;;;;;5044414;28;20197;-59
2022/10/26 08:45:43;;;;;;;8.17;7.37;;;14.60;1.00;;;;;;5044525;28;20477;-60
2022/10/26 08:48:23;;;;;;;9.43;7.63;;;14.80;1.00;;;;;;5047747;28;20454;-58
2022/10/26 08:50:58;;;;;;;10.23;7.73;;;14.90;1.00;;;;;;5048200;28;20427;-58
2022/10/26 08:53:42;;;;;;;8.97;7.20;;;15.00;1.00;;;;;;5049770;28;20445;-59
2022/10/26 08:56:31;;;;;;;8.20;6.93;;;15.00;1.00;;;;;;5049703;28;20434;-60
2022/10/26 08:59:05;;;;;;;9.83;6.97;;;15.10;1.00;;;;;;5045179;28;20917;-58
2022/10/26 09:01:32;;;;;;;8.03;6.83;;;15.10;1.00;;;;;;5042185;28;20561;-59
2022/10/26 09:04:00;;;;;;;8.33;6.77;;;15.30;1.00;;;;;;5047116;28;20499;-58
2022/10/26 09:06:49;;;;;;;9.17;7.33;;;15.40;1.00;;;;;;5048028;28;20511;-59
2022/10/26 09:09:22;;;;;;;8.00;6.80;;;15.60;1.00;;;;;;5035841;28;20530;-59
2022/10/26 09:12:14;;;;;;;8.50;7.60;;;15.80;1.00;;;;;;5048184;28;20556;-59
2022/10/26 09:15:20;;;;;;;10.30;7.20;;;15.90;1.00;;;;;;5049041;28;20450;-59
2022/10/26 09:18:08;;;;;;;7.07;6.37;;;16.20;1.00;;;;;;5028833;28;20793;-58
2022/10/26 09:20:46;;;;;;;9.10;7.00;;;16.20;1.00;;;;;;5043456;28;20996;-59
2022/10/26 09:23:33;;;;;;;6.80;6.17;;;16.40;1.00;;;;;;5046590;28;20418;-58
2022/10/26 09:26:01;;;;;;;8.60;7.10;;;16.50;1.00;;;;;;5045135;28;20764;-58
2022/10/26 09:28:35;;;;;;;7.77;6.00;;;16.50;1.00;;;;;;5049343;28;20434;-60
2022/10/26 09:31:04;;;;;;;9.00;7.13;;;16.50;1.00;;;;;;5046843;28;20451;-59
2022/10/26 09:33:35;;;;;;;9.60;7.03;;;16.40;1.00;;;;;;5049390;28;20491;-59
2022/10/26 09:36:02;;;;;;;9.63;6.73;;;16.30;1.00;;;;;;5046272;28;20449;-58
2022/10/26 09:38:39;;;;;;;12.10;7.87;;;16.20;1.00;;;;;;5044997;28;20458;-59
2022/10/26 09:54:12;;;;;;;14.70;7.13;;;16.80;1.00;;;;;;5099835;27;20588;-56
2022/10/26 09:56:39;;;;;;;8.03;6.40;;;16.90;1.00;;;;;;5104539;28;20453;-55
2022/10/26 09:59:06;;;;;;;8.43;6.93;;;17.00;1.00;;;;;;5106543;28;20683;-52
2022/10/26 10:01:32;;;;;;;10.73;7.60;;;17.10;1.00;;;;;;5106192;28;20566;-55
2022/10/26 10:04:09;;;;;;;10.10;7.90;;;17.20;1.00;;;;;;5105113;28;20935;-54
2022/10/26 10:06:34;;;;;;;9.67;7.70;;;17.10;1.00;;;;;;5103169;28;20441;-55
2022/10/26 10:09:22;;;;;;;7.83;7.13;;;17.30;1.00;;;;;;5104928;28;20443;-55
2022/10/26 10:11:58;;;;;;;9.20;7.90;;;17.60;1.00;;;;;;5106846;28;20203;-55
2022/10/26 10:14:30;;;;;;;8.53;7.60;;;17.70;1.00;;;;;;5104632;28;20453;-55
2022/10/26 10:17:01;;;;;;;11.20;7.83;;;17.70;1.00;;;;;;5105366;28;20439;-54
2022/10/26 10:19:29;;;;;;;8.27;7.47;;;17.80;1.00;;;;;;5105047;28;20614;-55
2022/10/26 10:22:18;;;;;;;7.50;6.67;;;17.80;1.00;;;;;;5101962;28;20464;-55
2022/10/26 10:25:03;;;;;;;9.07;6.47;;;17.80;1.00;;;;;;5106618;28;20418;-53
2022/10/26 10:27:30;;;;;;;7.07;6.03;;;17.90;1.00;;;;;;5106265;28;20486;-54
2022/10/26 10:29:57;;;;;;;8.37;6.10;;;18.00;1.00;;;;;;5106365;28;20417;-54
2022/10/26 10:32:26;;;;;;;7.63;6.83;;;18.10;1.00;;;;;;5101883;28;20517;-55
2022/10/26 10:34:54;;;;;;;7.13;6.13;;;18.20;1.00;;;;;;5106373;28;20980;-58
2022/10/26 10:37:31;;;;;;;7.00;5.70;;;18.10;1.00;;;;;;5095182;28;20501;-59
2022/10/26 10:40:01;;;;;;;7.60;6.03;;;18.10;1.00;;;;;;5106386;28;20407;-59
2022/10/26 10:42:32;;;;;;;7.53;5.30;;;18.20;1.00;;;;;;5102219;28;20476;-59
2022/10/26 10:44:59;;;;;;;6.33;5.73;;;18.20;1.00;;;;;;5105004;28;20455;-59
2022/10/26 10:47:29;;;;;;;7.07;5.60;;;18.30;1.00;;;;;;5105815;28;20414;-59
2022/10/26 10:50:00;;;;;;;8.50;6.33;;;18.50;1.00;;;;;;5105545;28;20413;-59
2022/10/26 10:52:32;;;;;;;8.13;5.70;;;16.30;1.00;;;;;;5105539;28;20613;-58
2022/10/26 10:55:05;;;;;;;5.80;5.17;;;18.60;1.00;;;;;;5092050;28;20477;-59
2022/10/26 10:57:56;;;;;;;6.83;4.50;;;18.80;1.00;;;;;;5087466;28;20451;-59
2022/10/26 11:00:23;;;;;;;6.87;5.07;;;19.00;1.00;;;;;;5088945;28;20439;-59
2022/10/26 11:03:18;;;;;;;5.60;4.43;;;19.20;1.00;;;;;;5091361;28;20466;-58
2022/10/26 11:06:05;;;;;;;5.87;5.37;;;19.40;1.00;;;;;;5086508;28;21077;-57
2022/10/26 11:08:34;;;;;;;9.17;4.80;;;19.50;1.00;;;;;;5090972;28;20439;-58
2022/10/26 11:11:17;;;;;;;6.77;3.37;;;19.50;1.00;;;;;;5089325;28;20922;-58
2022/10/26 11:14:21;;;;;;;6.90;3.37;;;19.50;1.00;;;;;;5090982;28;20417;-57
2022/10/26 11:17:28;;;;;;;4.63;3.33;;;19.50;1.00;;;;;;5049034;28;20418;-59
2022/10/26 11:19:53;;;;;;;6.10;3.40;;;19.80;1.00;;;;;;5084645;28;20542;-58
2022/10/26 11:22:36;;;;;;;5.10;3.60;;;20.20;1.00;;;;;;5086131;28;20537;-58
2022/10/26 11:25:19;;;;;;;5.53;3.73;;;20.30;1.00;;;;;;5087720;28;20741;-58
2022/10/26 11:27:50;;;;;;;6.33;3.60;;;20.30;1.00;;;;;;5091691;28;20470;-60
2022/10/26 11:30:21;;;;;;;4.13;2.97;;;19.70;1.00;;;;;;5089689;28;20868;-59
2022/10/26 11:33:00;;;;;;;9.30;3.20;;;20.50;1.00;;;;;;5085458;28;20440;-58
2022/10/26 11:35:36;;;;;;;4.30;2.60;;;20.60;1.00;;;;;;5088477;28;20476;-59
2022/10/26 11:38:30;;;;;;;5.93;2.97;;;20.50;1.00;;;;;;5090804;28;20459;-59
2022/10/26 11:41:12;;;;;;;4.23;2.20;;;20.50;1.00;;;;;;5089578;28;21038;-58
2022/10/26 11:43:43;;;;;;;6.47;2.60;;;20.80;1.00;;;;;;5090914;28;20433;-58
2022/10/26 11:46:17;;;;;;;4.33;2.60;;;20.80;1.00;;;;;;5090918;28;20429;-58
2022/10/26 11:48:58;;;;;;;3.20;2.37;;;20.80;1.00;;;;;;5090921;28;20447;-58
2022/10/26 11:51:58;;;;;;;3.67;2.60;;;20.80;1.00;;;;;;5089092;28;20466;-60
2022/10/26 11:54:41;;;;;;;7.07;2.87;;;21.00;1.00;;;;;;5091430;28;20422;-57
2022/10/26 11:57:09;;;;;;;2.80;2.50;;;20.80;1.00;;;;;;5091171;28;20967;-60
2022/10/26 11:59:42;;;;;;;3.00;2.67;;;20.90;1.00;;;;;;5091267;28;20544;-58
2022/10/26 12:02:18;;;;;;;5.63;2.27;;;20.90;1.00;;;;;;5091000;28;20991;-58
2022/10/26 12:04:47;;;;;;;4.27;2.50;;;20.80;1.00;;;;;;5089712;28;20406;-58
2022/10/26 12:07:23;;;;;;;5.83;2.80;;;20.80;1.00;;;;;;5090534;28;20411;-59
2022/10/26 12:09:50;;;;;;;4.40;2.37;;;20.90;1.00;;;;;;5090813;28;20435;-59
2022/10/26 12:12:24;;;;;;;4.73;2.37;;;20.90;1.00;;;;;;5090764;28;20422;-59
2022/10/26 12:15:31;;;;;;;4.67;2.73;;;21.20;1.00;;;;;;5089603;28;20971;-60
2022/10/26 12:18:10;;;;;;;4.57;2.10;;;21.60;1.00;;;;;;5084971;28;20442;-60
2022/10/26 12:21:01;;;;;;;3.60;1.70;;;21.60;1.00;;;;;;5090172;28;20486;-58
2022/10/26 12:23:29;;;;;;;4.13;1.50;;;21.60;1.00;;;;;;5090404;28;20472;-59
2022/10/26 12:26:27;;;;;;;3.00;2.17;;;22.00;1.00;;;;;;5090634;28;20440;-57
2022/10/26 12:29:02;;;;;;;2.73;1.60;;;21.90;1.00;;;;;;5090262;28;20441;-58
2022/10/26 12:31:37;;;;;;;2.47;1.87;;;21.60;1.00;;;;;;5090715;28;20440;-59
2022/10/26 12:34:21;;;;;;;1.90;1.17;;;21.40;1.00;;;;;;5089171;28;20450;-58
2022/10/26 12:36:53;;;;;;;1.50;1.10;;;21.40;1.00;;;;;;5090419;28;20414;-59
2022/10/26 12:39:41;;;;;;;1.10;1.00;;;21.40;1.00;;;;;;5088390;28;20414;-59
2022/10/26 12:42:09;;;;;;;1.93;1.10;;;21.00;1.00;;;;;;5089900;28;21262;-58
2022/10/26 12:44:44;;;;;;;1.93;1.20;;;20.80;1.00;;;;;;5085700;28;20443;-59
2022/10/26 12:47:29;;;;;;;1.53;1.00;;;20.80;1.00;;;;;;5087201;28;20440;-58
2022/10/26 12:50:07;;;;;;;1.33;0.97;;;20.80;1.00;;;;;;5088727;28;20475;-60
2022/10/26 12:53:07;;;;;;;3.00;1.10;;;20.80;1.00;;;;;;5089981;28;21029;-59
2022/10/26 12:55:47;;;;;;;2.00;1.30;;;20.70;1.00;;;;;;5089930;28;20439;-59
2022/10/26 12:58:40;;;;;;;2.50;1.50;;;20.70;1.00;;;;;;5088670;28;20497;-58
2022/10/26 13:01:05;;;;;;;3.20;1.80;;;20.60;1.00;;;;;;5088438;28;20419;-59
2022/10/26 13:03:53;;;;;;;1.97;1.77;;;20.70;1.00;;;;;;5084782;28;20490;-59
2022/10/26 13:06:57;;;;;;;2.43;1.90;;;20.70;1.00;;;;;;5087863;28;20186;-60
2022/10/26 13:09:28;;;;;;;4.27;1.87;;;20.70;1.00;;;;;;5087950;28;20985;-61
2022/10/26 13:11:56;;;;;;;3.20;1.30;;;20.60;1.00;;;;;;5088359;28;20514;-58
2022/10/26 13:14:59;;;;;;;3.33;1.80;;;20.60;1.00;;;;;;5088436;28;20436;-59
2022/10/26 13:17:28;;;;;;;12.97;1.60;;;20.40;1.00;;;;;;5088136;28;20446;-61
2022/10/26 13:19:56;;;;;;;4.03;1.30;;;20.30;1.00;;;;;;5088462;28;20914;-58
2022/10/26 13:22:23;;;;;;;2.77;1.40;;;20.20;1.00;;;;;;5086779;28;20978;-58
2022/10/26 13:24:53;;;;;;;6.20;1.60;;;20.30;1.00;;;;;;5089541;28;21107;-60
2022/10/26 13:27:18;;;;;;;2.17;1.40;;;20.50;1.00;;;;;;5087556;28;20519;-60
2022/10/26 13:30:18;;;;;;;10.60;1.43;;;20.50;1.00;;;;;;5089684;28;20988;-59
2022/10/26 13:32:54;;;;;;;2.80;1.50;;;20.60;1.00;;;;;;5087344;28;20250;-57
2022/10/26 13:35:23;;;;;;;3.50;2.13;;;20.60;1.00;;;;;;5085439;28;20562;-59